Time;durP1;ratioP1;P1;durP2;ratioP2;P2;SDS_P1;SDS_P2;PMS_P1;PMS_P2;Temp;Humidity;BMP_temperature;BMP_pressure;BME280_temperature;BME280_humidity;BME280_pressure;Samples;Min_cycle;Max_cycle;Signal;HPM_P1;HPM_P2
2023/06/01 00:01:55;;;;;;;7.90;3.85;;;;;;;18.70;39.95;99270.09;5145436;28;20122;-77
2023/06/01 00:04:22;;;;;;;6.82;3.95;;;;;;;18.89;39.97;99311.25;5145484;28;20039;-77
2023/06/01 00:06:50;;;;;;;5.05;3.75;;;;;;;18.86;39.60;99311.53;5146847;28;20036;-77
2023/06/01 00:09:17;;;;;;;8.57;4.32;;;;;;;18.81;39.72;99308.41;5146222;28;20035;-77
2023/06/01 00:11:43;;;;;;;5.53;3.70;;;;;;;18.74;40.12;99315.31;5146206;28;20039;-77
2023/06/01 00:14:10;;;;;;;5.95;3.28;;;;;;;18.71;40.35;99315.59;5146291;28;20042;-77
2023/06/01 00:16:37;;;;;;;4.78;3.33;;;;;;;18.08;40.31;99226.38;5146689;27;20061;-76
2023/06/01 00:19:04;;;;;;;8.93;4.20;;;;;;;18.66;40.36;99312.47;5148164;27;20045;-77
2023/06/01 00:21:32;;;;;;;5.57;3.90;;;;;;;18.64;40.21;99310.91;5150361;27;20038;-77
2023/06/01 00:24:00;;;;;;;4.70;3.60;;;;;;;18.63;40.23;99314.56;5149164;27;20070;-77
2023/06/01 00:26:29;;;;;;;6.55;3.90;;;;;;;18.58;40.60;99306.94;5149091;27;20031;-77
2023/06/01 00:28:56;;;;;;;7.18;3.47;;;;;;;18.56;40.43;99304.38;5150463;27;20035;-77
2023/06/01 00:31:23;;;;;;;7.15;3.58;;;;;;;18.51;40.55;99295.00;5149828;27;20215;-77
2023/06/01 00:33:53;;;;;;;7.57;4.05;;;;;;;18.46;40.88;99297.25;5148987;27;20066;-77
2023/06/01 00:36:20;;;;;;;8.02;4.40;;;;;;;18.41;40.74;99300.34;5148806;27;20210;-78
2023/06/01 00:38:47;;;;;;;4.25;3.17;;;;;;;18.38;40.85;99297.09;5148821;27;20366;-78
2023/06/01 00:41:15;;;;;;;6.53;3.67;;;;;;;18.35;41.38;99291.97;5149631;27;20080;-78
2023/06/01 00:43:42;;;;;;;6.65;3.63;;;;;;;18.30;41.10;99295.06;5149414;27;20069;-79
2023/06/01 00:46:09;;;;;;;7.18;3.72;;;;;;;18.25;41.20;99298.16;5149832;27;20195;-79
2023/06/01 00:48:37;;;;;;;4.57;3.42;;;;;;;17.14;41.46;99109.50;5148707;27;20092;-79
2023/06/01 00:51:03;;;;;;;6.30;3.95;;;;;;;18.22;41.61;99287.69;5148621;27;20039;-78
2023/06/01 00:53:31;;;;;;;5.43;3.70;;;;;;;18.09;41.36;99262.94;5149698;27;20045;-78
2023/06/01 00:55:57;;;;;;;5.75;3.83;;;;;;;18.18;41.65;99280.06;5148426;27;20027;-78
2023/06/01 00:58:28;;;;;;;7.85;3.70;;;;;;;18.14;41.73;99282.16;5149285;27;20241;-78
2023/06/01 01:00:55;;;;;;;7.60;4.10;;;;;;;18.11;41.74;99285.09;5148637;27;20039;-78
2023/06/01 01:03:25;;;;;;;10.13;3.83;;;;;;;18.09;41.62;99286.22;5149235;27;20042;-78
2023/06/01 01:06:02;;;;;;;7.70;3.67;;;;;;;18.02;42.21;99285.06;5148325;27;20070;-78
2023/06/01 01:08:37;;;;;;;5.18;2.92;;;;;;;17.78;41.92;99237.94;5149147;27;20069;-76
2023/06/01 01:11:11;;;;;;;5.60;3.92;;;;;;;18.03;42.11;99278.72;5149656;27;20335;-77
2023/06/01 01:13:47;;;;;;;5.75;3.20;;;;;;;18.01;42.84;99278.00;5149439;27;20303;-77
2023/06/01 01:16:24;;;;;;;4.70;3.65;;;;;;;18.00;42.55;99281.66;5149180;27;20107;-76
2023/06/01 01:19:12;;;;;;;6.95;3.72;;;;;;;17.96;42.44;99278.41;5148021;27;20043;-75
2023/06/01 01:21:47;;;;;;;5.05;3.28;;;;;;;17.97;42.42;99274.72;5149128;27;20100;-76
2023/06/01 01:24:23;;;;;;;;;;;;;;;17.86;43.62;99286.38;5149969;27;20057;-75
2023/06/01 01:27:05;;;;;;;4.80;2.95;;;;;;;17.77;42.78;99271.09;5147868;27;19921;-76
2023/06/01 01:29:36;;;;;;;4.97;2.80;;;;;;;17.83;42.55;99280.44;5147942;27;20125;-75
2023/06/01 01:32:05;;;;;;;5.15;3.22;;;;;;;17.34;42.49;99204.22;5148356;27;20039;-76
2023/06/01 01:34:33;;;;;;;5.32;3.10;;;;;;;17.79;42.67;99282.53;5149136;27;20070;-76
2023/06/01 01:37:00;;;;;;;4.18;2.72;;;;;;;17.58;42.50;99230.75;5149087;27;20338;-76
2023/06/01 01:39:26;;;;;;;6.53;3.70;;;;;;;17.81;42.34;99269.84;5148754;27;20179;-76
2023/06/01 01:41:53;;;;;;;5.03;3.38;;;;;;;17.77;42.38;99275.59;5148763;27;20186;-76
2023/06/01 01:44:20;;;;;;;5.68;3.50;;;;;;;17.29;42.69;99198.41;5147403;27;20047;-76
2023/06/01 01:46:57;;;;;;;4.55;3.03;;;;;;;17.73;43.25;99274.16;5148305;27;20295;-75
2023/06/01 01:49:29;;;;;;;4.45;2.85;;;;;;;17.73;42.83;99274.16;5148353;27;20046;-75
2023/06/01 01:52:06;;;;;;;4.63;3.42;;;;;;;17.74;42.63;99274.03;5148443;27;20076;-75
2023/06/01 01:54:37;;;;;;;5.50;3.45;;;;;;;17.72;42.70;99264.44;5148374;27;20089;-74
2023/06/01 01:57:06;;;;;;;5.38;2.75;;;;;;;17.54;42.47;99240.88;5148319;27;20161;-75
2023/06/01 01:59:33;;;;;;;9.02;3.42;;;;;;;16.47;42.31;99060.81;5148649;27;20055;-76
2023/06/01 02:02:02;;;;;;;4.50;3.17;;;;;;;17.62;42.42;99257.19;5147213;27;20142;-76
2023/06/01 02:04:29;;;;;;;5.22;3.38;;;;;;;17.60;42.37;99263.63;5147156;27;20330;-76
2023/06/01 02:06:55;;;;;;;4.80;3.38;;;;;;;17.58;42.60;99258.41;5147967;27;20043;-76
2023/06/01 02:09:22;;;;;;;5.03;3.00;;;;;;;17.43;42.36;99237.41;5148211;27;20206;-76
2023/06/01 02:11:49;;;;;;;6.00;2.85;;;;;;;17.54;42.50;99259.63;5147876;27;20045;-76
2023/06/01 02:14:16;;;;;;;4.28;3.00;;;;;;;17.36;42.26;99231.72;5148372;27;20066;-76
2023/06/01 02:16:44;;;;;;;4.85;3.10;;;;;;;17.49;42.93;99261.00;5147996;27;20043;-76
2023/06/01 02:19:15;;;;;;;5.65;3.15;;;;;;;17.44;43.05;99256.03;5148063;27;20254;-76
2023/06/01 02:21:42;;;;;;;3.92;2.92;;;;;;;17.40;43.04;99259.09;5147745;27;20274;-76
2023/06/01 02:24:08;;;;;;;4.63;2.78;;;;;;;17.41;42.73;99250.94;5147620;27;20038;-76
2023/06/01 02:26:35;;;;;;;5.38;3.58;;;;;;;17.33;42.96;99253.41;5146707;27;20045;-76
2023/06/01 02:29:04;;;;;;;6.18;3.78;;;;;;;17.34;42.95;99255.13;5148124;27;20072;-75
2023/06/01 02:31:31;;;;;;;8.05;3.53;;;;;;;17.33;43.29;99257.94;5146722;27;20275;-76
2023/06/01 02:33:58;;;;;;;5.63;3.15;;;;;;;17.31;43.27;99250.88;5147702;27;20043;-76
2023/06/01 02:36:28;;;;;;;4.47;3.15;;;;;;;17.28;43.16;99252.97;5147607;27;20088;-76
2023/06/01 02:38:54;;;;;;;8.05;3.53;;;;;;;17.25;43.19;99254.06;5146554;27;20039;-76
2023/06/01 02:41:22;;;;;;;4.72;3.20;;;;;;;17.24;43.33;99251.53;5147031;27;20046;-76
2023/06/01 02:43:50;;;;;;;6.03;3.10;;;;;;;17.21;43.46;99254.47;5147071;27;20121;-76
2023/06/01 02:46:17;;;;;;;7.00;3.60;;;;;;;17.16;43.25;99252.13;5147531;27;20043;-76
2023/06/01 02:48:44;;;;;;;7.57;3.65;;;;;;;17.15;43.79;99249.59;5147157;27;20039;-76
2023/06/01 02:51:11;;;;;;;5.78;3.28;;;;;;;17.12;43.83;99253.38;5147101;27;20058;-76
2023/06/01 02:53:40;;;;;;;11.93;3.72;;;;;;;17.07;44.18;99246.69;5147674;27;20084;-76
2023/06/01 02:56:07;;;;;;;5.38;3.10;;;;;;;17.04;43.88;99250.47;5146995;27;20049;-76
2023/06/01 02:58:34;;;;;;;5.40;3.72;;;;;;;17.02;44.09;99251.59;5147021;27;20053;-76
2023/06/01 03:01:00;;;;;;;5.65;3.33;;;;;;;16.98;44.10;99251.84;5147623;27;20076;-76
2023/06/01 03:03:27;;;;;;;7.60;4.78;;;;;;;16.97;44.51;99244.78;5147465;27;20096;-76
2023/06/01 03:05:55;;;;;;;8.95;5.75;;;;;;;16.49;44.34;99177.41;5146211;27;20039;-76
2023/06/01 03:08:24;;;;;;;16.05;7.82;;;;;;;16.97;44.35;99258.19;5147399;27;20035;-76
2023/06/01 03:10:52;;;;;;;9.10;6.35;;;;;;;16.96;44.77;99258.31;5145978;27;20039;-76
2023/06/01 03:13:19;;;;;;;7.85;5.85;;;;;;;16.09;44.59;99112.13;5146021;27;20035;-75
2023/06/01 03:15:46;;;;;;;8.38;5.13;;;;;;;16.99;44.61;99258.91;5146726;27;20295;-76
2023/06/01 03:18:14;;;;;;;7.70;4.88;;;;;;;16.97;44.54;99252.81;5147047;27;20035;-75
2023/06/01 03:20:40;;;;;;;6.35;3.95;;;;;;;16.97;44.93;99258.19;5147088;27;20095;-75
2023/06/01 03:23:07;;;;;;;7.93;3.85;;;;;;;17.00;44.26;99254.41;5145943;27;20049;-76
2023/06/01 03:25:34;;;;;;;6.97;3.92;;;;;;;17.00;44.90;99252.56;5146110;27;20348;-76
2023/06/01 03:28:02;;;;;;;5.80;3.50;;;;;;;17.01;44.66;99248.06;5147212;27;20350;-75
2023/06/01 03:30:30;;;;;;;6.47;3.30;;;;;;;17.02;44.74;99252.44;5146888;28;20194;-76
2023/06/01 03:32:57;;;;;;;6.97;3.38;;;;;;;17.02;44.49;99248.91;5145581;28;20039;-77
2023/06/01 03:35:24;;;;;;;6.00;3.17;;;;;;;16.14;44.56;99105.44;5146523;28;20043;-77
2023/06/01 03:37:51;;;;;;;6.03;3.38;;;;;;;17.02;44.81;99259.63;5146765;27;20233;-77
2023/06/01 03:40:17;;;;;;;5.78;3.50;;;;;;;16.63;44.86;99197.69;5146416;28;20043;-77
2023/06/01 03:42:46;;;;;;;4.85;3.63;;;;;;;16.97;44.75;99251.97;5146310;28;20051;-77
2023/06/01 03:45:15;;;;;;;5.28;3.35;;;;;;;16.95;44.88;99260.13;5146755;28;20232;-77
2023/06/01 03:47:42;;;;;;;6.45;3.75;;;;;;;16.57;44.95;99203.53;5145560;28;20118;-77
2023/06/01 03:50:10;;;;;;;6.38;3.50;;;;;;;16.93;44.81;99267.44;5146905;28;20047;-76
2023/06/01 03:52:38;;;;;;;8.70;3.10;;;;;;;16.92;45.03;99260.38;5146937;27;20053;-76
2023/06/01 03:55:08;;;;;;;6.05;3.88;;;;;;;16.93;45.15;99251.38;5150492;27;20317;-77
2023/06/01 03:57:35;;;;;;;5.60;3.30;;;;;;;16.93;44.93;99258.56;5150988;27;20043;-76
2023/06/01 04:00:17;;;;;;;9.38;4.20;;;;;;;16.94;45.16;99258.44;5149598;27;20035;-75
2023/06/01 04:02:49;;;;;;;8.65;3.97;;;;;;;16.94;45.98;99247.72;5150980;27;20356;-75
2023/06/01 04:05:17;;;;;;;7.82;3.45;;;;;;;16.93;45.61;99246.03;5150484;27;20067;-75
2023/06/01 04:07:45;;;;;;;5.30;3.72;;;;;;;16.68;45.59;99200.84;5149722;27;20044;-76
2023/06/01 04:10:13;;;;;;;7.65;3.70;;;;;;;16.93;45.88;99243.34;5150412;27;20337;-77
2023/06/01 04:12:41;;;;;;;6.15;4.40;;;;;;;16.96;45.80;99243.09;5150476;27;20084;-76
2023/06/01 04:15:09;;;;;;;6.28;4.30;;;;;;;16.45;45.76;99162.59;5150459;27;20047;-77
2023/06/01 04:17:37;;;;;;;7.43;4.13;;;;;;;16.98;45.93;99241.13;5150603;27;20062;-77
2023/06/01 04:20:09;;;;;;;7.60;4.13;;;;;;;17.01;46.78;99242.72;5150079;27;20295;-76
2023/06/01 04:22:36;;;;;;;8.07;3.85;;;;;;;17.02;46.47;99243.56;5149184;27;20047;-77
2023/06/01 04:25:03;;;;;;;8.23;4.55;;;;;;;17.05;46.53;99243.31;5149028;27;20053;-77
2023/06/01 04:27:30;;;;;;;5.35;3.70;;;;;;;17.10;46.30;99243.75;5149948;27;20031;-77
2023/06/01 04:29:58;;;;;;;8.77;4.82;;;;;;;17.09;46.48;99240.25;5149697;27;20034;-77
2023/06/01 04:32:25;;;;;;;6.60;4.30;;;;;;;17.11;46.18;99242.78;5150117;27;20107;-77
2023/06/01 04:34:52;;;;;;;7.75;4.53;;;;;;;15.98;46.11;99049.72;5150304;27;20062;-76
2023/06/01 04:37:20;;;;;;;10.77;4.53;;;;;;;17.14;46.34;99246.06;5149557;27;20137;-77
2023/06/01 04:39:50;;;;;;;8.52;3.97;;;;;;;17.17;46.68;99239.59;5149685;27;20194;-77
2023/06/01 04:42:18;;;;;;;8.38;3.75;;;;;;;17.17;46.24;99251.16;5149473;27;20039;-77
2023/06/01 04:44:49;;;;;;;6.82;4.32;;;;;;;17.17;46.43;99245.78;5148737;27;20256;-76
2023/06/01 04:47:16;;;;;;;7.78;4.03;;;;;;;17.19;46.51;99248.34;5149653;27;20036;-76
2023/06/01 04:49:43;;;;;;;6.50;4.47;;;;;;;16.97;46.20;99211.81;5149776;27;20042;-76
2023/06/01 04:52:12;;;;;;;6.78;3.75;;;;;;;17.20;46.09;99245.56;5148680;27;20057;-76
2023/06/01 04:54:40;;;;;;;7.63;4.45;;;;;;;17.19;46.00;99246.53;5149453;27;20080;-77
2023/06/01 04:57:07;;;;;;;6.13;3.38;;;;;;;17.21;45.80;99243.75;5149218;27;20035;-77
2023/06/01 04:59:35;;;;;;;5.93;3.70;;;;;;;17.22;45.57;99242.75;5148154;27;20100;-76
2023/06/01 05:02:01;;;;;;;7.93;4.18;;;;;;;17.21;45.89;99243.75;5148115;27;20039;-76
2023/06/01 05:04:28;;;;;;;6.10;4.15;;;;;;;17.22;45.98;99242.75;5149184;27;20202;-77
2023/06/01 05:06:55;;;;;;;7.47;3.63;;;;;;;17.24;45.62;99249.69;5148239;27;20035;-77
2023/06/01 05:09:22;;;;;;;10.35;5.82;;;;;;;17.24;45.78;99238.13;5149007;27;20039;-76
2023/06/01 05:11:50;;;;;;;8.88;5.93;;;;;;;17.26;46.14;99244.22;5147897;27;20035;-76
2023/06/01 05:14:17;;;;;;;7.90;4.95;;;;;;;16.92;45.70;99196.13;5149034;27;20128;-77
2023/06/01 05:16:44;;;;;;;6.97;5.05;;;;;;;17.29;45.42;99238.59;5148934;27;20049;-77
2023/06/01 05:19:12;;;;;;;5.88;4.13;;;;;;;17.33;45.50;99237.34;5147534;27;20322;-77
2023/06/01 05:21:40;;;;;;;10.68;4.78;;;;;;;17.36;45.47;99237.09;5148913;27;20314;-77
2023/06/01 05:24:07;;;;;;;6.20;4.20;;;;;;;17.37;45.74;99240.63;5147826;27;20046;-76
2023/06/01 05:26:34;;;;;;;7.10;4.63;;;;;;;17.39;45.31;99246.69;5149211;27;20043;-78
2023/06/01 05:29:03;;;;;;;8.98;4.13;;;;;;;17.42;45.73;99241.94;5148726;27;20042;-77
2023/06/01 05:31:30;;;;;;;6.25;3.60;;;;;;;17.23;45.67;99193.59;5148571;27;20035;-77
2023/06/01 05:33:57;;;;;;;7.72;4.10;;;;;;;17.47;45.74;99239.72;5148756;27;20214;-77
2023/06/01 05:36:24;;;;;;;6.05;3.90;;;;;;;17.52;45.42;99233.94;5147595;27;20118;-77
2023/06/01 05:38:51;;;;;;;9.85;4.38;;;;;;;17.56;45.14;99235.38;5147904;27;20084;-77
2023/06/01 05:41:18;;;;;;;8.95;4.00;;;;;;;17.59;45.35;99237.81;5149003;27;20043;-77
2023/06/01 05:43:44;;;;;;;9.02;3.85;;;;;;;15.59;45.64;98889.97;5148245;27;20257;-77
2023/06/01 05:46:13;;;;;;;7.03;3.88;;;;;;;17.68;45.18;99237.03;5148319;27;20047;-77
2023/06/01 05:48:40;;;;;;;8.38;4.22;;;;;;;17.73;45.17;99236.66;5148172;27;20040;-76
2023/06/01 05:51:07;;;;;;;10.00;4.72;;;;;;;17.77;44.91;99230.03;5147351;27;20035;-76
2023/06/01 05:53:34;;;;;;;6.65;3.88;;;;;;;17.76;45.26;99222.97;5148629;27;20047;-77
2023/06/01 05:56:00;;;;;;;9.27;4.18;;;;;;;17.84;45.42;99233.88;5147311;27;20042;-76
2023/06/01 05:58:27;;;;;;;11.82;5.03;;;;;;;17.86;45.03;99238.13;5147104;27;20039;-77
2023/06/01 06:00:54;;;;;;;8.13;4.63;;;;;;;17.90;45.22;99238.72;5147243;27;20038;-77
2023/06/01 06:03:23;;;;;;;8.93;4.28;;;;;;;17.92;45.31;99240.28;5146991;27;20203;-77
2023/06/01 06:05:50;;;;;;;7.75;4.70;;;;;;;17.96;44.58;99232.81;5147730;27;20045;-77
2023/06/01 06:08:17;;;;;;;7.13;3.92;;;;;;;17.97;44.86;99242.56;5146929;27;20039;-77
2023/06/01 06:10:44;;;;;;;6.97;3.72;;;;;;;18.02;44.49;99239.47;5148250;27;20039;-77
2023/06/01 06:13:11;;;;;;;7.97;4.25;;;;;;;18.07;44.71;99240.75;5147885;27;20197;-77
2023/06/01 06:15:38;;;;;;;6.55;3.35;;;;;;;18.13;44.52;99245.59;5147588;27;20096;-77
2023/06/01 06:18:05;;;;;;;8.52;3.88;;;;;;;18.20;44.92;99246.75;5146399;27;20046;-77
2023/06/01 06:20:33;;;;;;;8.75;4.05;;;;;;;18.25;43.89;99240.97;5147318;27;20050;-77
2023/06/01 06:23:00;;;;;;;9.02;4.45;;;;;;;18.30;43.59;99244.09;5147785;27;20053;-77
2023/06/01 06:25:27;;;;;;;7.50;3.55;;;;;;;18.35;43.54;99241.84;5147162;27;20115;-77
2023/06/01 06:27:54;;;;;;;6.70;4.22;;;;;;;18.41;43.24;99244.00;5146364;27;20046;-77
2023/06/01 06:30:20;;;;;;;12.30;4.00;;;;;;;18.45;43.22;99242.72;5147581;27;20051;-77
2023/06/01 06:32:47;;;;;;;6.80;3.10;;;;;;;18.50;42.72;99239.63;5146365;27;20122;-76
2023/06/01 06:35:14;;;;;;;7.10;4.00;;;;;;;18.44;42.32;99230.31;5146323;27;20043;-76
2023/06/01 06:37:43;;;;;;;5.53;3.47;;;;;;;18.55;42.50;99248.16;5146237;27;20180;-77
2023/06/01 06:40:11;;;;;;;6.47;3.40;;;;;;;18.33;42.16;99205.41;5147195;27;20291;-77
2023/06/01 06:42:38;;;;;;;5.13;3.20;;;;;;;18.60;42.43;99240.53;5145934;27;20137;-77
2023/06/01 06:45:06;;;;;;;6.15;3.35;;;;;;;18.55;42.11;99224.00;5147376;27;20244;-77
2023/06/01 06:47:33;;;;;;;10.38;3.85;;;;;;;18.70;41.96;99241.41;5147214;27;20092;-77
2023/06/01 06:50:00;;;;;;;5.70;3.30;;;;;;;18.76;41.56;99243.53;5146150;27;20041;-77
2023/06/01 06:52:27;;;;;;;4.93;3.13;;;;;;;18.84;41.62;99241.00;5147485;27;20110;-76
2023/06/01 06:54:55;;;;;;;6.45;2.70;;;;;;;18.89;41.59;99249.50;5146959;27;20049;-77
2023/06/01 06:57:23;;;;;;;3.90;2.67;;;;;;;18.95;41.71;99252.59;5146806;27;20043;-77
2023/06/01 06:59:50;;;;;;;7.85;3.05;;;;;;;19.05;41.75;99240.03;5146131;27;20050;-77
2023/06/01 07:02:17;;;;;;;5.82;3.35;;;;;;;19.15;41.71;99247.09;5146908;27;20046;-77
2023/06/01 07:04:44;;;;;;;6.20;2.75;;;;;;;19.24;41.47;99242.72;5147383;27;20035;-77
2023/06/01 07:07:11;;;;;;;7.18;3.22;;;;;;;19.35;41.20;99245.25;5147016;27;20321;-77
2023/06/01 07:09:38;;;;;;;8.10;3.53;;;;;;;19.49;40.83;99239.47;5146850;27;20098;-77
2023/06/01 07:12:08;;;;;;;6.75;2.83;;;;;;;19.70;40.49;99241.13;5145701;27;20046;-76
2023/06/01 07:14:35;;;;;;;6.45;3.42;;;;;;;19.90;40.63;99239.25;5146689;27;20046;-76
2023/06/01 07:17:01;;;;;;;5.20;2.95;;;;;;;20.10;39.73;99236.34;5146976;27;20042;-76
2023/06/01 07:19:32;;;;;;;5.85;3.20;;;;;;;20.26;39.54;99245.66;5146424;27;20039;-76
2023/06/01 07:22:00;;;;;;;8.02;3.25;;;;;;;20.36;39.48;99239.22;5146532;27;20176;-77
2023/06/01 07:24:27;;;;;;;10.68;4.03;;;;;;;20.27;39.12;99174.69;5146864;27;20049;-76
2023/06/01 07:26:55;;;;;;;6.40;3.33;;;;;;;20.87;38.60;99227.00;5147020;27;20042;-76
2023/06/01 07:29:23;;;;;;;5.40;3.80;;;;;;;21.14;38.40;99221.56;5144662;28;20043;-77
2023/06/01 07:31:51;;;;;;;5.20;3.40;;;;;;;21.39;38.23;99211.84;5145437;28;20042;-76
2023/06/01 07:34:18;;;;;;;7.63;3.75;;;;;;;21.62;38.17;99216.72;5145663;28;20042;-77
2023/06/01 07:36:47;;;;;;;7.45;3.30;;;;;;;21.53;38.09;99183.47;5146159;28;20081;-77
2023/06/01 07:39:14;;;;;;;4.63;3.13;;;;;;;21.89;37.44;99184.22;5146570;28;20031;-77
2023/06/01 07:41:42;;;;;;;6.30;3.15;;;;;;;22.35;37.32;99212.59;5145389;28;20046;-77
2023/06/01 07:44:09;;;;;;;6.68;3.60;;;;;;;22.39;36.71;99186.09;5146264;28;20059;-77
2023/06/01 07:46:39;;;;;;;9.88;4.03;;;;;;;22.84;35.97;99211.94;5146332;28;20058;-77
2023/06/01 07:49:07;;;;;;;10.18;4.13;;;;;;;22.80;35.84;99207.88;5145988;27;20035;-77
2023/06/01 07:51:34;;;;;;;7.15;3.78;;;;;;;23.18;35.76;99207.25;5146171;28;20039;-77
2023/06/01 07:54:01;;;;;;;5.30;3.33;;;;;;;23.33;35.58;99207.44;5146130;28;20333;-77
2023/06/01 07:56:28;;;;;;;4.50;3.00;;;;;;;23.28;35.63;99178.22;5144946;28;20047;-77
2023/06/01 07:58:55;;;;;;;8.45;3.42;;;;;;;23.51;35.15;99205.41;5146383;28;20031;-77
2023/06/01 08:01:22;;;;;;;8.18;3.60;;;;;;;23.73;34.76;99203.00;5145978;28;20043;-77
2023/06/01 08:03:51;;;;;;;9.30;4.82;;;;;;;23.63;34.19;99168.88;5146401;28;20251;-78
2023/06/01 08:06:18;;;;;;;5.47;3.35;;;;;;;23.64;34.24;99175.13;5146637;28;20043;-77
2023/06/01 08:08:48;;;;;;;7.88;4.95;;;;;;;23.86;34.03;99206.03;5145847;27;20062;-77
2023/06/01 08:11:21;;;;;;;6.82;3.45;;;;;;;24.02;33.79;99194.34;5145779;28;20051;-77
2023/06/01 08:13:48;;;;;;;4.57;3.10;;;;;;;24.23;33.82;99195.44;5146041;28;20034;-78
2023/06/01 08:16:16;;;;;;;6.60;3.47;;;;;;;24.45;33.58;99191.09;5145941;28;20042;-77
2023/06/01 08:18:42;;;;;;;6.32;4.15;;;;;;;24.69;33.64;99192.03;5145152;28;20105;-77
2023/06/01 08:21:11;;;;;;;5.78;3.22;;;;;;;24.93;32.89;99191.84;5146329;28;20205;-77
2023/06/01 08:23:38;;;;;;;5.38;3.45;;;;;;;25.04;32.77;99180.63;5145955;28;20043;-77
2023/06/01 08:26:05;;;;;;;6.32;3.22;;;;;;;24.96;32.69;99150.84;5146241;27;20305;-77
2023/06/01 08:28:33;;;;;;;6.57;3.88;;;;;;;25.36;32.57;99179.53;5146167;28;20050;-77
2023/06/01 08:31:00;;;;;;;6.60;3.67;;;;;;;25.50;32.07;99183.31;5145903;27;20039;-77
2023/06/01 08:33:27;;;;;;;7.95;3.72;;;;;;;25.49;32.02;99184.34;5145858;28;20310;-77
2023/06/01 08:35:55;;;;;;;11.80;3.72;;;;;;;25.57;31.96;99165.25;5145000;28;20054;-77
2023/06/01 08:38:23;;;;;;;4.95;2.85;;;;;;;25.74;31.89;99177.63;5144785;28;20299;-77
2023/06/01 08:40:54;;;;;;;9.00;3.63;;;;;;;25.74;31.14;99172.22;5149491;27;20035;-78
2023/06/01 08:43:21;;;;;;;6.50;2.80;;;;;;;25.71;31.72;99180.72;5148208;27;20353;-77
2023/06/01 08:45:54;;;;;;;5.72;3.15;;;;;;;25.77;31.40;99169.13;5148552;27;20039;-77
2023/06/01 08:48:22;;;;;;;11.20;3.20;;;;;;;23.92;31.35;98881.41;5148561;27;20035;-77
2023/06/01 08:50:51;;;;;;;5.22;3.10;;;;;;;25.58;31.13;99115.41;5149896;27;20092;-77
2023/06/01 08:53:21;;;;;;;4.38;3.13;;;;;;;25.97;31.12;99166.72;5149546;27;20088;-77
2023/06/01 08:55:52;;;;;;;7.03;2.65;;;;;;;25.88;29.55;99143.38;5149702;27;20272;-77
2023/06/01 08:58:19;;;;;;;8.02;2.60;;;;;;;26.17;30.50;99154.25;5149485;27;20047;-77
2023/06/01 09:00:49;;;;;;;4.05;2.53;;;;;;;26.30;30.31;99153.56;5149339;27;20295;-77
2023/06/01 09:03:16;;;;;;;5.25;3.00;;;;;;;26.43;30.42;99147.47;5149197;27;20080;-77
2023/06/01 09:05:43;;;;;;;4.93;2.53;;;;;;;26.50;29.91;99149.22;5149387;27;20055;-77
2023/06/01 09:08:10;;;;;;;8.38;3.53;;;;;;;26.62;29.97;99146.88;5149539;27;20042;-77
2023/06/01 09:10:37;;;;;;;7.90;2.70;;;;;;;26.53;29.42;99126.25;5149529;27;20233;-76
2023/06/01 09:13:05;;;;;;;4.10;2.90;;;;;;;26.60;29.96;99110.00;5149830;27;20039;-77
2023/06/01 09:15:32;;;;;;;5.85;2.85;;;;;;;26.80;29.83;99119.25;5149166;27;20071;-78
2023/06/01 09:18:10;;;;;;;7.20;3.15;;;;;;;27.01;28.13;99135.53;5148746;27;20167;-78
2023/06/01 09:20:39;;;;;;;7.53;2.88;;;;;;;26.86;29.23;99103.00;5148484;27;20244;-77
2023/06/01 09:23:05;;;;;;;3.75;2.70;;;;;;;27.05;28.69;99139.56;5149110;27;20039;-77
2023/06/01 09:25:34;;;;;;;4.25;2.58;;;;;;;26.92;29.17;99131.28;5148476;27;20050;-77
2023/06/01 09:28:06;;;;;;;9.07;3.30;;;;;;;26.62;29.37;99062.63;5149161;27;20318;-78
2023/06/01 09:30:42;;;;;;;9.20;4.10;;;;;;;27.13;27.09;99123.09;5147667;27;20046;-78
2023/06/01 09:33:12;;;;;;;6.65;3.40;;;;;;;27.15;27.96;99123.75;5147576;27;20074;-78
2023/06/01 09:35:42;;;;;;;5.60;3.63;;;;;;;27.11;28.41;99127.91;5148666;27;20054;-78
2023/06/01 09:38:10;;;;;;;5.15;2.60;;;;;;;25.36;28.54;98837.78;5148551;27;20199;-78
2023/06/01 09:40:56;;;;;;;6.45;3.42;;;;;;;27.08;27.64;99125.56;5148719;27;20088;-81
2023/06/01 09:43:23;;;;;;;12.50;3.70;;;;;;;27.07;28.24;99126.59;5148114;27;20062;-77
2023/06/01 09:46:08;;;;;;;5.82;2.30;;;;;;;27.08;26.46;99122.00;5148613;27;20196;-77
2023/06/01 09:48:36;;;;;;;5.38;2.20;;;;;;;26.94;28.61;99120.22;5148378;27;20110;-77
2023/06/01 09:51:05;;;;;;;7.90;3.03;;;;;;;26.84;28.43;99117.81;5146991;27;20039;-77
2023/06/01 09:53:41;;;;;;;6.45;2.70;;;;;;;26.74;26.63;99117.31;5148234;27;20043;-77
2023/06/01 09:56:08;;;;;;;6.30;2.65;;;;;;;26.71;28.42;99114.97;5147745;27;20047;-77
2023/06/01 09:58:39;;;;;;;4.88;2.83;;;;;;;26.73;28.17;99113.75;5147046;27;20035;-77
2023/06/01 10:01:15;;;;;;;9.40;3.55;;;;;;;26.75;26.96;99116.25;5147714;27;20039;-77
2023/06/01 10:03:43;;;;;;;8.23;2.88;;;;;;;26.76;28.02;99107.06;5147952;27;20047;-77
2023/06/01 10:06:12;;;;;;;5.65;3.28;;;;;;;26.80;28.26;99105.66;5146685;27;20031;-77
2023/06/01 10:08:40;;;;;;;7.10;3.25;;;;;;;26.72;28.24;99079.44;5147668;27;20039;-77
2023/06/01 10:11:09;;;;;;;5.15;2.80;;;;;;;26.96;28.43;99112.69;5146227;27;20114;-77
2023/06/01 10:13:37;;;;;;;6.40;3.05;;;;;;;26.97;28.21;99100.78;5147751;27;20114;-77
2023/06/01 10:16:04;;;;;;;5.70;2.47;;;;;;;26.81;28.45;99088.31;5147757;27;20208;-77
2023/06/01 10:18:33;;;;;;;6.15;3.00;;;;;;;26.67;28.00;99070.19;5147469;27;20136;-77
2023/06/01 10:21:00;;;;;;;4.28;3.00;;;;;;;26.80;28.40;99100.22;5147885;27;20049;-77
2023/06/01 10:23:27;;;;;;;6.13;2.72;;;;;;;26.78;28.45;99096.84;5147387;27;20129;-77
2023/06/01 10:25:55;;;;;;;6.93;3.00;;;;;;;26.86;27.97;99091.28;5146390;27;20303;-76
2023/06/01 10:28:23;;;;;;;5.63;3.75;;;;;;;26.80;28.10;99065.72;5147033;27;20027;-77
2023/06/01 10:31:23;;;;;;;4.60;2.92;;;;;;;27.00;26.66;99086.78;5146244;27;20039;-76
2023/06/01 10:33:55;;;;;;;8.60;4.40;;;;;;;26.93;27.18;99067.69;5146813;27;20054;-77
2023/06/01 10:36:22;;;;;;;6.20;3.72;;;;;;;27.13;27.99;99081.47;5147276;27;20238;-77
2023/06/01 10:38:49;;;;;;;6.75;3.30;;;;;;;27.18;27.90;99082.56;5146799;27;20217;-78
2023/06/01 10:41:30;;;;;;;5.28;3.38;;;;;;;26.72;26.78;99007.91;5146877;27;20047;-78
2023/06/01 10:43:58;;;;;;;6.90;3.67;;;;;;;27.14;27.79;99070.38;5146752;27;20111;-77
2023/06/01 10:46:44;;;;;;;8.23;4.38;;;;;;;27.25;27.24;99074.47;5147090;27;20057;-78
2023/06/01 10:49:13;;;;;;;5.13;2.95;;;;;;;27.26;27.73;99059.00;5146825;27;20035;-77
2023/06/01 10:51:40;;;;;;;8.10;3.67;;;;;;;27.33;27.99;99077.03;5146858;27;20069;-77
2023/06/01 10:54:30;;;;;;;5.68;3.55;;;;;;;27.29;27.09;99064.88;5145876;27;20041;-77
2023/06/01 10:57:23;;;;;;;5.72;2.50;;;;;;;27.26;26.76;99065.28;5136542;27;20111;-78
2023/06/01 11:00:15;;;;;;;8.27;3.50;;;;;;;27.26;26.50;99064.44;5127602;27;20118;-78
2023/06/01 11:03:01;;;;;;;6.78;3.00;;;;;;;27.19;26.12;99064.34;5145830;27;20039;-77
2023/06/01 11:05:50;;;;;;;6.07;2.90;;;;;;;27.20;26.26;99057.88;5146623;27;20107;-77
2023/06/01 11:08:53;;;;;;;6.93;3.20;;;;;;;27.25;27.79;99052.72;5146812;27;20050;-77
2023/06/01 11:11:23;;;;;;;8.75;3.42;;;;;;;27.21;27.92;99031.50;5146649;27;20039;-77
2023/06/01 11:14:13;;;;;;;5.65;3.45;;;;;;;26.78;26.59;98931.03;5146938;27;20042;-78
2023/06/01 11:16:40;;;;;;;6.43;3.10;;;;;;;27.54;27.27;99050.78;5146900;27;20043;-78
2023/06/01 11:19:08;;;;;;;6.45;2.80;;;;;;;27.63;27.45;99036.00;5146392;27;20050;-77
2023/06/01 11:21:39;;;;;;;8.25;3.38;;;;;;;27.68;26.92;99039.81;5146517;27;20039;-78
2023/06/01 11:24:12;;;;;;;7.35;3.80;;;;;;;27.73;27.05;99040.03;5147079;27;20095;-77
2023/06/01 11:26:41;;;;;;;5.63;3.22;;;;;;;27.68;26.72;99037.06;5145587;27;20043;-78
2023/06/01 11:29:13;;;;;;;8.30;3.53;;;;;;;27.71;27.30;99030.38;5146282;27;20046;-77
2023/06/01 11:31:43;;;;;;;6.70;3.60;;;;;;;27.73;27.11;99026.44;5146215;27;20111;-78
2023/06/01 11:34:12;;;;;;;5.53;3.60;;;;;;;27.73;26.70;99028.31;5145551;28;20059;-78
2023/06/01 11:36:44;;;;;;;7.07;3.90;;;;;;;27.71;26.66;99019.50;5146516;27;20050;-76
2023/06/01 11:39:25;;;;;;;8.70;5.15;;;;;;;27.57;27.03;99015.00;5146362;28;20084;-76
2023/06/01 11:41:55;;;;;;;8.73;6.07;;;;;;;27.59;27.65;99021.09;5146536;28;20057;-77
2023/06/01 11:44:22;;;;;;;7.95;4.97;;;;;;;27.61;27.13;99010.88;5145334;28;20043;-77